createdAt,value
2022-12-03T00:01:15.988Z,-0.11
2022-12-03T00:07:59.294Z,-0.19
2022-12-03T00:14:47.315Z,-0.28
2022-12-03T00:21:31.085Z,-0.24
2022-12-03T00:28:17.618Z,-0.34
2022-12-03T00:35:04.581Z,-0.37
2022-12-03T00:41:47.868Z,-0.45
2022-12-03T00:48:38.714Z,-0.40
2022-12-03T00:55:21.969Z,-0.43
2022-12-03T01:02:05.418Z,-0.48
2022-12-03T01:08:49.130Z,-0.28
2022-12-03T01:15:34.236Z,-0.11
2022-12-03T01:22:17.784Z,-0.09
2022-12-03T01:29:03.239Z,-0.19
2022-12-03T01:35:47.949Z,-0.23
2022-12-03T01:42:31.475Z,-0.19
2022-12-03T01:49:16.539Z,-0.17
2022-12-03T01:55:59.645Z,-0.05
2022-12-03T02:02:48.528Z,0.04
2022-12-03T02:09:32.783Z,-0.02
2022-12-03T02:16:18.206Z,-0.11
2022-12-03T02:23:19.282Z,-0.05
2022-12-03T02:30:03.936Z,0.09
2022-12-03T02:36:48.063Z,0.18
2022-12-03T02:43:34.371Z,0.25
2022-12-03T02:50:17.912Z,0.29
2022-12-03T02:57:08.635Z,0.28
2022-12-03T03:03:53.948Z,0.30
2022-12-03T03:10:36.880Z,0.28
2022-12-03T03:17:29.172Z,0.23
2022-12-03T03:24:29.004Z,0.28
2022-12-03T03:31:12.477Z,0.28
2022-12-03T03:38:01.339Z,0.16
2022-12-03T03:44:47.504Z,0.04
2022-12-03T03:51:32.191Z,-0.02
2022-12-03T03:58:16.420Z,0.18
2022-12-03T04:04:59.644Z,0.25
2022-12-03T04:11:41.354Z,0.38
2022-12-03T04:18:09.791Z,0.59
2022-12-03T04:24:53.188Z,0.67
2022-12-03T04:31:34.884Z,0.76
2022-12-03T04:38:18.086Z,0.76
2022-12-03T04:45:03.233Z,0.82
2022-12-03T04:51:53.399Z,0.78
2022-12-03T04:58:39.373Z,0.61
2022-12-03T05:05:30.076Z,0.43
2022-12-03T05:12:16.589Z,0.43
2022-12-03T05:19:07.061Z,0.52
2022-12-03T05:26:00.082Z,0.41
2022-12-03T05:32:43.356Z,0.24
2022-12-03T05:39:27.694Z,0.30
2022-12-03T05:46:13.662Z,0.45
2022-12-03T05:52:58.783Z,0.57
2022-12-03T06:26:26.307Z,0.76
2022-12-03T06:33:09.449Z,0.80
2022-12-03T06:39:55.184Z,0.87
2022-12-03T06:46:39.739Z,0.93
2022-12-03T06:53:24.072Z,0.96
2022-12-03T06:59:51.423Z,1.06
2022-12-03T07:06:34.920Z,1.11
2022-12-03T07:13:20.528Z,1.11
2022-12-03T07:20:04.164Z,1.16
2022-12-03T07:26:50.942Z,1.21
2022-12-03T07:33:34.784Z,1.16
2022-12-03T07:40:19.481Z,1.15
2022-12-03T07:47:03.855Z,1.13
2022-12-03T07:53:49.620Z,1.08
2022-12-03T08:00:32.722Z,0.80
2022-12-03T08:07:16.010Z,0.68
2022-12-03T08:14:02.410Z,0.62
2022-12-03T08:20:51.144Z,0.75
2022-12-03T08:27:34.126Z,0.91
2022-12-03T08:34:17.186Z,1.07
2022-12-03T08:41:00.486Z,1.19
2022-12-03T08:47:52.393Z,1.23
2022-12-03T09:28:09.789Z,1.18
2022-12-03T09:34:53.197Z,1.31
2022-12-03T09:41:41.610Z,1.39
2022-12-03T09:48:27.763Z,1.60
2022-12-03T09:55:16.482Z,1.76
2022-12-03T10:01:59.616Z,1.67
2022-12-03T10:08:46.101Z,1.38
2022-12-03T10:15:32.518Z,1.31
2022-12-03T10:22:24.379Z,1.59
2022-12-03T10:29:17.469Z,1.57
2022-12-03T10:36:20.790Z,1.26
2022-12-03T10:43:17.577Z,1.18
2022-12-03T10:50:14.114Z,1.05
2022-12-03T10:57:01.391Z,0.89
2022-12-03T11:03:45.136Z,0.69
2022-12-03T11:10:30.264Z,0.40
2022-12-03T11:17:24.372Z,0.22
2022-12-03T11:31:14.921Z,0.84
2022-12-03T12:33:10.971Z,1.29
2022-12-03T12:39:57.491Z,1.42
2022-12-03T12:46:51.626Z,1.56
2022-12-03T12:53:35.181Z,1.48
2022-12-03T13:00:25.642Z,1.42
2022-12-03T13:07:11.401Z,1.61
2022-12-03T13:14:02.422Z,1.80
2022-12-03T13:20:57.594Z,1.84
2022-12-03T13:28:00.375Z,1.68
2022-12-03T13:34:45.819Z,1.36
2022-12-03T13:48:11.844Z,1.00
2022-12-03T13:55:15.656Z,1.06
2022-12-03T14:02:05.412Z,1.03
2022-12-03T14:08:52.170Z,0.83
2022-12-03T14:15:36.053Z,0.72
2022-12-03T14:22:19.822Z,0.67
2022-12-03T14:29:08.605Z,0.60
2022-12-03T14:35:57.201Z,0.53
2022-12-03T14:42:42.282Z,0.59
2022-12-03T14:49:25.371Z,0.57
2022-12-03T14:56:09.116Z,0.60
2022-12-03T15:02:52.835Z,0.53
2022-12-03T15:09:36.529Z,0.43
2022-12-03T15:16:23.850Z,0.52
2022-12-03T15:23:11.243Z,0.56
2022-12-03T15:30:01.317Z,0.50
2022-12-03T15:36:47.204Z,0.53
2022-12-03T15:43:33.402Z,0.62
2022-12-03T15:50:16.682Z,0.65
2022-12-03T15:57:01.548Z,0.51
2022-12-03T16:03:48.330Z,0.46
2022-12-03T16:10:31.199Z,0.64
2022-12-03T16:17:14.720Z,0.69
2022-12-03T16:24:05.882Z,0.65
2022-12-03T16:30:49.187Z,0.74
2022-12-03T16:37:32.794Z,0.95
2022-12-03T16:44:17.083Z,0.95
2022-12-03T16:51:03.310Z,1.03
2022-12-03T16:57:46.985Z,1.10
2022-12-03T17:04:30.180Z,1.07
2022-12-03T17:11:15.176Z,1.13
2022-12-03T17:18:04.478Z,1.23
2022-12-03T17:24:48.795Z,1.23
2022-12-03T17:31:41.428Z,1.14
2022-12-03T17:38:27.754Z,0.91
2022-12-03T17:45:12.726Z,0.74
2022-12-03T17:51:56.321Z,0.71
2022-12-03T17:58:39.861Z,0.84
2022-12-03T18:05:22.808Z,1.02
2022-12-03T18:12:06.393Z,1.09
2022-12-03T18:18:53.754Z,1.13
2022-12-03T18:25:41.767Z,1.28
2022-12-03T18:32:29.320Z,1.31
2022-12-03T18:39:15.542Z,1.23
2022-12-03T18:45:59.048Z,1.32
2022-12-03T18:52:47.321Z,1.37
2022-12-03T18:59:30.538Z,1.39
2022-12-03T19:06:17.227Z,1.42
2022-12-03T19:13:02.717Z,1.43
2022-12-03T19:19:46.865Z,1.42
2022-12-03T19:26:37.298Z,1.41
2022-12-03T19:33:28.242Z,1.32
2022-12-03T19:40:11.877Z,1.24
2022-12-03T19:46:56.361Z,1.34
2022-12-03T19:53:41.301Z,1.50
2022-12-03T19:59:44.811Z,1.52
2022-12-03T20:06:08.140Z,1.59
2022-12-03T20:12:02.597Z,1.63
2022-12-03T20:18:10.550Z,1.64
2022-12-03T20:24:08.584Z,1.64
2022-12-03T20:30:51.613Z,1.63
2022-12-03T20:37:34.227Z,1.69
2022-12-03T20:44:22.328Z,1.78
2022-12-03T20:50:46.686Z,1.83
2022-12-03T20:57:17.397Z,1.83
2022-12-03T21:03:50.514Z,1.82
2022-12-03T21:10:33.287Z,1.87
2022-12-03T21:17:09.545Z,1.92
2022-12-03T21:23:52.055Z,1.87
2022-12-03T21:30:35.747Z,1.95
2022-12-03T21:37:17.762Z,2.08
2022-12-03T21:44:00.392Z,2.16
2022-12-03T21:50:22.756Z,2.17
2022-12-03T21:56:49.092Z,2.23
2022-12-03T22:03:39.644Z,2.25
2022-12-03T22:10:23.913Z,2.29
2022-12-03T22:17:06.897Z,2.42
2022-12-03T22:23:49.864Z,2.41
2022-12-03T22:30:32.360Z,2.40
2022-12-03T22:37:15.601Z,2.28
2022-12-03T22:43:58.988Z,2.32
2022-12-03T22:50:42.422Z,2.31
2022-12-03T22:57:25.194Z,2.24
2022-12-03T23:04:08.422Z,2.32
2022-12-03T23:10:54.683Z,2.38
2022-12-03T23:17:38.025Z,2.31
2022-12-03T23:24:20.957Z,2.32
2022-12-03T23:31:03.991Z,2.31
2022-12-03T23:37:47.023Z,2.31
2022-12-03T23:44:30.197Z,2.30
2022-12-03T23:51:19.135Z,2.30
2022-12-03T23:58:02.433Z,2.34
